createdAt,value
2022-10-21T00:02:17.722Z,97142.50
2022-10-21T00:04:46.188Z,97142.66
2022-10-21T00:07:14.684Z,97138.16
2022-10-21T00:09:43.096Z,97154.09
2022-10-21T00:12:11.608Z,97166.50
2022-10-21T00:14:39.898Z,97168.34
2022-10-21T00:17:08.359Z,97162.19
2022-10-21T00:19:39.926Z,97152.56
2022-10-21T00:22:08.316Z,97162.34
2022-10-21T00:24:36.807Z,97193.34
2022-10-21T00:27:05.263Z,97192.50
2022-10-21T00:29:34.349Z,97196.16
2022-10-21T00:32:02.801Z,97206.75
2022-10-21T00:34:31.224Z,97205.09
2022-10-21T00:37:01.035Z,97200.63
2022-10-21T00:39:29.484Z,97202.44
2022-10-21T00:41:57.917Z,97198.97
2022-10-21T00:44:27.707Z,97200.78
2022-10-21T00:46:59.134Z,97221.16
2022-10-21T00:49:33.749Z,97230.94
2022-10-21T00:52:05.345Z,97223.97
2022-10-21T00:54:34.189Z,97231.91
2022-10-21T00:57:02.484Z,97224.94
2022-10-21T00:59:35.821Z,97220.63
2022-10-21T01:02:04.510Z,97224.28
2022-10-21T01:04:32.951Z,97221.47
2022-10-21T01:07:03.237Z,97234.72
2022-10-21T01:09:32.564Z,97229.56
2022-10-21T01:12:03.148Z,97207.53
2022-10-21T01:14:49.013Z,97202.38
2022-10-21T01:17:47.629Z,97201.41
2022-10-21T01:20:39.170Z,97190.94
2022-10-21T01:23:32.840Z,97190.13
2022-10-21T01:26:20.839Z,97188.28
2022-10-21T01:29:01.699Z,97182.16
2022-10-21T01:31:34.163Z,97189.28
2022-10-21T01:34:07.281Z,97187.47
2022-10-21T01:36:41.636Z,97186.78
2022-10-21T01:39:20.317Z,97166.56
2022-10-21T01:41:55.614Z,97164.91
2022-10-21T01:44:27.171Z,97163.91
2022-10-21T01:46:59.408Z,97177.16
2022-10-21T01:49:31.239Z,97177.16
2022-10-21T01:52:01.405Z,97166.72
2022-10-21T01:54:33.129Z,97163.22
2022-10-21T01:57:02.340Z,97160.59
2022-10-21T01:59:32.355Z,97163.22
2022-10-21T02:02:03.905Z,97152.78
2022-10-21T02:04:33.485Z,97149.31
2022-10-21T02:07:01.832Z,97145.66
2022-10-21T02:12:04.872Z,97137.03
2022-10-21T02:14:35.658Z,97133.41
2022-10-21T02:17:06.236Z,97123.94
2022-10-21T02:19:34.681Z,97121.28
2022-10-21T02:22:03.897Z,97116.97
2022-10-21T02:24:39.103Z,97112.50
2022-10-21T02:27:07.487Z,97111.66
2022-10-21T02:29:38.058Z,97109.16
2022-10-21T02:32:17.723Z,97109.16
2022-10-21T02:34:59.977Z,97114.47
2022-10-21T02:37:32.703Z,97106.53
2022-10-21T02:40:05.376Z,97118.13
2022-10-21T02:42:35.116Z,97114.63
2022-10-21T02:45:04.583Z,97110.31
2022-10-21T02:47:37.553Z,97109.47
2022-10-21T02:50:07.338Z,97116.44
2022-10-21T02:52:35.877Z,97117.44
2022-10-21T02:55:05.063Z,97111.31
2022-10-21T02:57:33.401Z,97098.22
2022-10-21T03:00:01.808Z,97100.88
2022-10-21T03:02:30.217Z,97098.22
2022-10-21T03:04:59.904Z,97099.22
2022-10-21T03:07:28.274Z,97082.34
2022-10-21T03:09:56.653Z,97090.59
2022-10-21T03:12:25.107Z,97093.09
2022-10-21T03:14:53.506Z,97081.66
2022-10-21T03:17:25.112Z,97089.91
2022-10-21T03:19:54.010Z,97093.25
2022-10-21T03:22:23.619Z,97096.88
2022-10-21T03:24:52.017Z,97105.66
2022-10-21T03:27:20.476Z,97093.41
2022-10-21T03:29:48.880Z,97083.94
2022-10-21T03:32:17.293Z,97070.69
2022-10-21T03:34:45.790Z,97060.91
2022-10-21T03:37:14.161Z,97068.03
2022-10-21T03:39:44.547Z,97068.88
2022-10-21T03:42:12.902Z,97059.25
2022-10-21T03:44:41.644Z,97068.03
2022-10-21T03:47:10.205Z,97067.22
2022-10-21T03:49:38.559Z,97069.03
2022-10-21T03:52:07.142Z,97071.00
2022-10-21T03:54:35.612Z,97068.19
2022-10-21T03:57:05.534Z,97064.72
2022-10-21T03:59:33.943Z,97050.47
2022-10-21T04:02:02.332Z,97063.06
2022-10-21T04:07:53.150Z,97048.13
2022-10-21T04:10:22.017Z,97059.72
2022-10-21T04:12:51.743Z,97052.59
2022-10-21T04:15:20.433Z,97052.59
2022-10-21T04:17:48.997Z,97038.53
2022-10-21T04:20:17.710Z,97049.97
2022-10-21T04:22:46.027Z,97034.06
2022-10-21T04:25:20.610Z,97021.94
2022-10-21T04:28:51.642Z,97016.66
2022-10-21T04:31:33.246Z,96987.66
2022-10-21T04:34:02.035Z,96987.50
2022-10-21T04:36:30.637Z,96992.81
2022-10-21T04:38:59.069Z,96982.19
2022-10-21T04:41:28.389Z,96980.53
2022-10-21T04:43:58.048Z,96979.56
2022-10-21T04:46:27.923Z,96973.59
2022-10-21T04:48:56.279Z,96967.41
2022-10-21T04:51:24.911Z,96957.69
2022-10-21T04:54:03.133Z,96952.66
2022-10-21T04:56:31.751Z,96956.97
2022-10-21T04:59:01.463Z,96956.00
2022-10-21T05:01:30.250Z,96947.38
2022-10-21T05:03:58.769Z,96960.47
2022-10-21T05:06:27.203Z,96961.44
2022-10-21T05:08:55.795Z,96957.97
2022-10-21T05:11:24.262Z,96967.72
2022-10-21T05:13:52.646Z,96970.38
2022-10-21T05:20:42.504Z,96960.94
2022-10-21T05:23:41.944Z,96958.28
2022-10-21T05:26:10.635Z,96963.56
2022-10-21T05:28:39.266Z,96952.97
2022-10-21T05:31:07.575Z,96949.66
2022-10-21T05:33:37.276Z,96953.97
2022-10-21T05:36:07.788Z,96951.47
2022-10-21T05:38:57.735Z,96954.97
2022-10-21T05:41:29.703Z,96948.00
2022-10-21T05:43:58.156Z,96953.28
2022-10-21T05:46:26.593Z,96942.69
2022-10-21T05:48:56.345Z,96948.81
2022-10-21T05:51:26.521Z,96959.59
2022-10-21T05:53:55.162Z,96959.59
2022-10-21T05:56:23.679Z,96956.09
2022-10-21T05:58:52.383Z,96961.41
2022-10-21T06:01:20.868Z,96968.53
2022-10-21T06:03:50.135Z,96957.09
2022-10-21T06:06:20.173Z,96953.47
2022-10-21T06:08:48.580Z,96965.88
2022-10-21T06:11:18.767Z,96967.53
2022-10-21T06:15:05.714Z,96965.72
2022-10-21T06:18:12.633Z,96966.84
2022-10-21T06:21:32.625Z,96965.88
2022-10-21T06:24:32.149Z,96964.88
2022-10-21T06:28:00.181Z,96969.34
2022-10-21T06:30:28.911Z,96964.22
2022-10-21T06:36:21.176Z,96961.56
2022-10-21T06:39:06.799Z,96956.25
2022-10-21T06:41:52.368Z,96956.25
2022-10-21T06:44:40.756Z,96963.38
2022-10-21T06:47:09.327Z,96970.34
2022-10-21T06:49:37.773Z,96973.16
2022-10-21T06:52:07.726Z,96970.50
2022-10-21T06:54:36.181Z,96974.81
2022-10-21T06:57:04.867Z,96966.19
2022-10-21T06:59:33.323Z,96969.50
2022-10-21T07:02:01.827Z,96966.03
2022-10-21T07:04:30.381Z,96958.91
2022-10-21T07:06:59.191Z,96950.97
2022-10-21T07:09:29.108Z,96939.53
2022-10-21T07:11:57.586Z,96947.47
2022-10-21T07:14:26.380Z,96932.41
2022-10-21T07:16:54.899Z,96933.25
2022-10-21T07:19:23.335Z,96930.59
2022-10-21T07:21:51.968Z,96928.78
2022-10-21T07:24:22.760Z,96927.13
2022-10-21T07:26:52.784Z,96917.34
2022-10-21T07:29:21.772Z,96896.16
2022-10-21T07:31:50.117Z,96900.47
2022-10-21T07:34:18.992Z,96903.94
2022-10-21T07:36:52.523Z,96901.97
2022-10-21T07:39:24.088Z,96900.81
2022-10-21T07:41:55.369Z,96912.25
2022-10-21T07:44:25.364Z,96915.72
2022-10-21T07:46:54.655Z,96914.91
2022-10-21T07:49:24.486Z,96923.69
2022-10-21T07:51:53.788Z,96929.81
2022-10-21T07:54:22.292Z,96913.91
2022-10-21T07:56:53.306Z,96915.72
2022-10-21T07:59:23.809Z,96920.03
2022-10-21T08:01:53.096Z,96933.13
2022-10-21T08:04:24.692Z,96928.66
2022-10-21T08:06:53.264Z,96940.09
2022-10-21T08:09:23.110Z,96942.75
2022-10-21T08:11:53.082Z,96945.38
2022-10-21T08:14:21.875Z,96943.56
2022-10-21T08:16:52.826Z,96940.09
2022-10-21T08:19:27.226Z,96944.56
2022-10-21T08:21:56.248Z,96934.78
2022-10-21T08:24:24.942Z,96933.97
2022-10-21T08:26:54.997Z,96933.13
2022-10-21T08:29:26.053Z,96940.09
2022-10-21T08:31:55.269Z,96931.19
2022-10-21T08:34:23.714Z,96921.53
2022-10-21T08:36:52.200Z,96920.59
2022-10-21T08:39:20.783Z,96913.47
2022-10-21T08:42:07.647Z,96908.16
2022-10-21T08:44:40.554Z,96907.19
2022-10-21T08:47:16.350Z,96908.84
2022-10-21T08:49:55.094Z,96911.31
2022-10-21T08:52:26.437Z,96916.63
2022-10-21T08:54:58.128Z,96919.28
2022-10-21T08:57:28.662Z,96913.16
2022-10-21T08:59:57.157Z,96919.28
2022-10-21T09:02:30.795Z,96925.56
2022-10-21T09:08:03.272Z,96964.31
2022-10-21T09:10:51.452Z,96962.66
2022-10-21T09:13:56.578Z,96977.72
2022-10-21T09:16:28.709Z,96991.13
2022-10-21T09:19:03.143Z,96978.00
2022-10-21T09:21:36.774Z,96984.19
2022-10-21T09:24:08.401Z,96994.78
2022-10-21T09:26:39.912Z,96994.63
2022-10-21T09:29:31.924Z,97007.03
2022-10-21T09:32:10.430Z,97019.47
2022-10-21T09:34:45.493Z,97013.31
2022-10-21T09:37:19.888Z,97026.56
2022-10-21T09:39:50.232Z,97018.63
2022-10-21T09:42:35.748Z,97005.38
2022-10-21T09:45:21.125Z,97004.22
2022-10-21T09:47:55.306Z,96996.28
2022-10-21T09:50:23.668Z,96992.50
2022-10-21T09:52:58.977Z,96981.72
2022-10-21T09:55:28.358Z,96967.34
2022-10-21T09:57:59.268Z,96958.06
2022-10-21T10:00:47.176Z,96972.81
2022-10-21T10:03:31.046Z,96978.97
2022-10-21T10:06:00.064Z,96995.84
2022-10-21T10:08:35.187Z,97011.75
2022-10-21T10:11:06.521Z,97034.63
2022-10-21T10:13:34.870Z,97031.97
2022-10-21T10:16:24.066Z,97044.03
2022-10-21T10:18:54.199Z,97065.09
2022-10-21T10:21:23.328Z,97060.31
2022-10-21T10:23:53.336Z,97060.81
2022-10-21T10:26:25.168Z,97071.13
2022-10-21T10:28:56.396Z,97055.22
2022-10-21T10:31:32.418Z,97054.38
2022-10-21T10:34:03.963Z,97043.94
2022-10-21T10:36:36.034Z,97029.84
2022-10-21T10:39:07.596Z,97027.03
2022-10-21T10:41:39.430Z,97015.44
2022-10-21T10:44:13.614Z,96996.88
2022-10-21T10:46:44.211Z,96977.34
2022-10-21T10:49:24.852Z,96975.50
2022-10-21T10:52:07.203Z,96972.88
2022-10-21T10:54:35.719Z,96956.28
2022-10-21T10:57:06.408Z,96945.69
2022-10-21T10:59:44.790Z,96940.22
2022-10-21T11:02:35.111Z,96961.44
2022-10-21T11:05:20.619Z,96962.25
2022-10-21T11:07:51.592Z,96947.19
2022-10-21T11:10:33.742Z,96980.66
2022-10-21T11:13:04.025Z,96970.06
2022-10-21T11:15:53.014Z,96955.28
2022-10-21T11:18:26.987Z,96986.13
2022-10-21T11:21:02.670Z,96994.91
2022-10-21T11:23:55.618Z,96989.59
2022-10-21T11:26:30.739Z,97003.84
2022-10-21T11:29:05.447Z,96987.94
2022-10-21T11:31:53.706Z,96982.63
2022-10-21T11:34:34.920Z,96978.16
2022-10-21T11:37:07.911Z,97021.56
2022-10-21T11:39:47.199Z,97052.91
2022-10-21T11:42:20.857Z,97057.22
2022-10-21T11:45:00.076Z,97073.13
2022-10-21T11:47:33.911Z,97045.63
2022-10-21T11:50:13.008Z,97066.00
2022-10-21T11:52:50.653Z,97056.25
2022-10-21T11:55:39.224Z,97052.75
2022-10-21T11:58:22.392Z,97026.25
2022-10-21T12:00:55.477Z,97029.72
2022-10-21T12:03:40.848Z,97028.91
2022-10-21T12:06:22.087Z,97036.84
2022-10-21T12:08:54.955Z,97028.06
2022-10-21T12:11:26.559Z,97018.28
2022-10-21T12:13:57.948Z,97002.22
2022-10-21T12:16:29.460Z,96999.56
2022-10-21T12:19:00.923Z,97007.38
2022-10-21T12:21:33.174Z,97001.06
2022-10-21T12:24:06.168Z,96992.28
2022-10-21T12:29:16.051Z,96992.28
2022-10-21T12:31:48.888Z,96998.41
2022-10-21T12:34:17.365Z,97000.09
2022-10-21T12:36:49.460Z,97006.38
2022-10-21T12:39:21.653Z,97005.38
2022-10-21T12:41:50.102Z,97001.91
2022-10-21T12:44:25.933Z,97005.38
2022-10-21T12:46:56.753Z,96994.78
2022-10-21T12:49:28.210Z,96988.47
2022-10-21T12:52:04.727Z,96986.66
2022-10-21T12:54:41.649Z,96986.00
2022-10-21T12:57:13.209Z,96984.00
2022-10-21T12:59:43.308Z,96990.16
2022-10-21T13:02:28.179Z,96991.97
2022-10-21T13:05:30.402Z,96992.63
2022-10-21T13:08:27.497Z,96996.13
2022-10-21T13:11:24.698Z,96995.44
2022-10-21T13:14:27.053Z,96986.50
2022-10-21T13:17:15.332Z,96987.34
2022-10-21T13:19:43.726Z,96980.22
2022-10-21T13:22:13.662Z,96992.47
2022-10-21T13:24:43.582Z,96985.34
2022-10-21T13:27:27.712Z,96992.31
2022-10-21T13:29:59.775Z,96980.88
2022-10-21T13:32:30.072Z,96976.41
2022-10-21T13:35:23.938Z,96987.69
2022-10-21T13:37:56.399Z,96989.34
2022-10-21T13:40:31.232Z,96993.66
2022-10-21T13:43:01.976Z,96982.06
2022-10-21T13:45:31.789Z,96982.06
2022-10-21T13:48:02.779Z,96989.84
2022-10-21T13:50:34.015Z,96988.03
2022-10-21T13:53:50.178Z,96986.03
2022-10-21T13:56:25.889Z,96986.72
2022-10-21T13:58:54.386Z,96985.88
2022-10-21T14:01:25.560Z,96989.38
2022-10-21T14:03:54.871Z,96987.53
2022-10-21T14:06:30.673Z,96992.03
2022-10-21T14:09:00.886Z,96986.72
2022-10-21T14:11:36.405Z,96990.03
2022-10-21T14:14:09.559Z,96996.19
2022-10-21T14:16:40.236Z,96986.41
2022-10-21T14:19:10.875Z,96998.66
2022-10-21T14:21:40.886Z,96988.88
2022-10-21T14:24:24.943Z,96992.53
2022-10-21T14:26:55.033Z,96991.53
2022-10-21T14:29:52.332Z,96990.88
2022-10-21T14:32:27.233Z,96982.75
2022-10-21T14:35:36.204Z,96990.72
2022-10-21T14:38:23.089Z,96993.34
2022-10-21T14:40:57.924Z,96987.22
2022-10-21T14:43:35.226Z,96987.22
2022-10-21T14:46:06.199Z,96983.56
2022-10-21T14:48:36.392Z,96986.22
2022-10-21T14:51:07.649Z,96976.63
2022-10-21T14:53:38.144Z,96979.09
2022-10-21T14:56:08.169Z,96981.75
2022-10-21T14:58:39.362Z,96977.44
2022-10-21T15:01:12.945Z,96973.97
2022-10-21T15:03:58.892Z,96970.31
2022-10-21T15:06:29.619Z,96967.66
2022-10-21T15:12:45.145Z,96978.13
2022-10-21T15:15:53.414Z,96974.47
2022-10-21T15:18:24.407Z,96972.66
2022-10-21T15:20:55.271Z,96976.13
2022-10-21T15:23:27.171Z,96973.31
2022-10-21T15:26:00.031Z,96980.44
2022-10-21T15:28:31.225Z,96977.78
2022-10-21T15:31:02.357Z,96975.28
2022-10-21T15:33:31.367Z,96968.16
2022-10-21T15:36:04.136Z,96973.47
2022-10-21T15:38:32.622Z,96976.13
2022-10-21T15:41:00.946Z,96974.47
2022-10-21T15:43:29.562Z,96982.44
2022-10-21T15:45:57.940Z,96979.78
2022-10-21T15:48:28.094Z,96965.69
2022-10-21T15:50:57.883Z,96962.03
2022-10-21T15:53:26.408Z,96962.19
2022-10-21T15:55:57.665Z,96961.22
2022-10-21T15:58:26.275Z,96960.38
2022-10-21T16:00:54.963Z,96965.69
2022-10-21T16:03:23.752Z,96969.16
2022-10-21T16:05:53.758Z,96972.81
2022-10-21T16:08:22.512Z,96974.47
2022-10-21T16:10:51.172Z,96980.75
2022-10-21T16:13:19.815Z,96973.63
2022-10-21T16:15:48.428Z,96964.84
2022-10-21T16:18:16.995Z,96964.84
2022-10-21T16:20:45.485Z,96967.50
2022-10-21T16:23:15.304Z,96962.19
2022-10-21T16:25:43.693Z,96962.19
2022-10-21T16:28:12.403Z,96963.19
2022-10-21T16:30:41.824Z,96960.53
2022-10-21T16:33:11.289Z,96964.03
2022-10-21T16:35:39.855Z,96969.31
2022-10-21T16:38:08.236Z,96980.75
2022-10-21T16:40:38.182Z,96982.59
2022-10-21T16:43:06.557Z,96995.03
2022-10-21T16:45:35.592Z,97007.63
2022-10-21T16:48:05.259Z,96996.00
2022-10-21T16:50:39.324Z,96997.00
2022-10-21T16:53:08.469Z,97007.47
2022-10-21T16:55:38.347Z,96999.50
2022-10-21T16:58:06.692Z,97000.50
2022-10-21T17:00:35.416Z,96997.00
2022-10-21T17:03:03.948Z,96994.34
2022-10-21T17:06:23.386Z,96991.69
2022-10-21T17:08:58.679Z,96998.00
2022-10-21T17:11:31.908Z,97002.31
2022-10-21T17:14:00.631Z,96995.34
2022-10-21T17:16:29.190Z,97001.47
2022-10-21T17:18:57.688Z,97005.78
2022-10-21T17:21:27.748Z,96998.00
2022-10-21T17:23:56.869Z,97004.97
2022-10-21T17:26:25.960Z,97000.66
2022-10-21T17:28:56.906Z,97008.59
2022-10-21T17:31:26.987Z,97006.94
2022-10-21T17:33:56.583Z,97010.44
2022-10-21T17:36:24.809Z,97011.25
2022-10-21T17:38:53.388Z,97006.13
2022-10-21T17:41:21.942Z,97002.63
2022-10-21T17:43:50.458Z,96994.69
2022-10-21T17:46:21.951Z,96997.31
2022-10-21T17:48:51.373Z,96995.66
2022-10-21T17:51:27.136Z,96995.66
2022-10-21T17:53:56.335Z,96985.06
2022-10-21T17:56:31.232Z,96996.66
2022-10-21T17:59:26.739Z,96994.00
2022-10-21T18:02:25.000Z,96987.03
2022-10-21T18:04:53.332Z,96987.88
2022-10-21T18:07:21.761Z,96977.25
2022-10-21T18:09:50.101Z,96987.03
2022-10-21T18:12:18.505Z,96987.03
2022-10-21T18:14:46.897Z,96987.03
2022-10-21T18:17:15.981Z,96992.34
2022-10-21T18:19:46.722Z,96990.69
2022-10-21T18:22:15.623Z,97003.94
2022-10-21T18:24:44.018Z,96996.97
2022-10-21T18:30:42.908Z,96990.69
2022-10-21T18:33:11.476Z,96990.69
2022-10-21T18:35:42.538Z,96990.69
2022-10-21T18:38:11.006Z,96977.41
2022-10-21T18:40:43.690Z,96987.19
2022-10-21T18:43:19.802Z,96988.19
2022-10-21T18:46:17.478Z,96974.09
2022-10-21T18:48:46.079Z,96977.59
2022-10-21T18:51:17.682Z,96975.91
2022-10-21T18:53:49.785Z,96972.28
2022-10-21T18:56:21.616Z,96967.97
2022-10-21T18:58:50.467Z,96973.09
2022-10-21T19:01:19.966Z,96965.16
2022-10-21T19:03:54.013Z,96964.31
2022-10-21T19:06:37.221Z,96967.97
2022-10-21T19:09:09.270Z,96964.47
2022-10-21T19:11:59.466Z,96965.31
2022-10-21T19:14:48.179Z,96966.31
2022-10-21T19:17:28.533Z,96955.03
2022-10-21T19:20:33.225Z,96960.34
2022-10-21T19:23:03.045Z,96961.16
2022-10-21T19:25:31.558Z,96959.34
2022-10-21T19:28:00.145Z,96959.34
2022-10-21T19:30:29.746Z,96968.28
2022-10-21T19:33:00.215Z,96969.13
2022-10-21T19:35:29.183Z,96956.69
2022-10-21T19:38:00.627Z,96966.47
2022-10-21T19:40:32.988Z,96971.78
2022-10-21T19:43:01.350Z,96972.75
2022-10-21T19:45:30.345Z,96970.09
2022-10-21T19:47:58.916Z,96976.25
2022-10-21T19:50:27.434Z,96992.16
2022-10-21T19:52:55.925Z,96978.91
2022-10-21T19:55:24.697Z,96991.31
2022-10-21T19:57:54.532Z,96985.19
2022-10-21T20:00:22.877Z,96984.38
2022-10-21T20:02:51.267Z,96984.38
2022-10-21T20:05:19.753Z,96980.88
2022-10-21T20:07:48.202Z,96980.88
2022-10-21T20:10:20.184Z,96982.69
2022-10-21T20:12:48.599Z,96987.34
2022-10-21T20:15:18.460Z,96989.00
2022-10-21T20:17:46.924Z,96989.81
2022-10-21T20:20:15.724Z,96993.31
2022-10-21T20:22:52.208Z,96998.59
2022-10-21T20:25:21.546Z,96996.94
2022-10-21T20:27:50.128Z,96989.97
2022-10-21T20:30:19.796Z,96999.59
2022-10-21T20:32:52.753Z,96997.09
2022-10-21T20:35:21.411Z,96986.50
2022-10-21T20:37:49.928Z,96983.03
2022-10-21T20:40:20.250Z,96989.16
2022-10-21T20:42:49.824Z,96991.97
2022-10-21T20:45:20.153Z,96976.06
2022-10-21T20:47:48.639Z,96984.00
2022-10-21T20:50:17.179Z,96974.22
2022-10-21T20:52:45.578Z,96973.41
2022-10-21T20:55:14.015Z,96968.25
2022-10-21T20:57:42.641Z,96970.75
2022-10-21T21:00:12.353Z,96977.03
2022-10-21T21:02:42.085Z,96970.91
2022-10-21T21:05:10.944Z,96964.63
2022-10-21T21:07:39.651Z,96965.59
2022-10-21T21:10:09.070Z,96968.25
2022-10-21T21:12:37.941Z,96970.91
2022-10-21T21:15:07.671Z,96960.47
2022-10-21T21:17:36.075Z,96956.00
2022-10-21T21:20:06.922Z,96959.78
2022-10-21T21:22:36.454Z,96959.63
2022-10-21T21:25:05.442Z,96964.09
2022-10-21T21:27:33.907Z,96959.63
2022-10-21T21:32:30.703Z,96966.59
2022-10-21T21:35:03.522Z,96964.94
2022-10-21T21:37:36.017Z,96963.28
2022-10-21T21:40:06.764Z,96956.31
2022-10-21T21:43:13.876Z,96956.47
2022-10-21T21:45:47.913Z,96956.47
2022-10-21T21:50:50.487Z,96966.25
2022-10-21T21:53:24.845Z,96951.34
2022-10-21T21:55:53.274Z,96939.91
2022-10-21T21:58:21.697Z,96946.34
2022-10-21T22:00:50.443Z,96938.25
2022-10-21T22:03:21.617Z,96954.00
2022-10-21T22:05:50.648Z,96955.28
2022-10-21T22:08:21.090Z,96957.78
2022-10-21T22:10:49.733Z,96972.03
2022-10-21T22:13:18.163Z,96968.38
2022-10-21T22:15:48.344Z,96968.38
2022-10-21T22:18:17.486Z,96973.69
2022-10-21T22:20:46.631Z,96972.03
2022-10-21T22:23:16.466Z,96969.38
2022-10-21T22:25:46.223Z,96972.88
2022-10-21T22:28:15.084Z,96979.00
2022-10-21T22:30:44.558Z,96985.13
2022-10-21T22:33:14.513Z,96982.63
2022-10-21T22:35:43.767Z,96986.28
2022-10-21T22:38:12.889Z,96974.00
2022-10-21T22:40:41.823Z,96977.50
2022-10-21T22:43:11.868Z,96981.97
2022-10-21T22:45:40.571Z,96979.31
2022-10-21T22:48:09.266Z,96978.50
2022-10-21T22:50:38.109Z,96976.66
2022-10-21T22:53:06.784Z,96983.78
2022-10-21T22:55:35.416Z,96982.97
2022-10-21T22:58:04.028Z,96987.28
2022-10-21T23:00:34.336Z,96991.91
2022-10-21T23:03:06.159Z,96998.88
2022-10-21T23:05:37.666Z,96997.19
2022-10-21T23:08:06.275Z,97002.50
2022-10-21T23:10:34.829Z,97006.16
2022-10-21T23:13:05.396Z,97010.63
2022-10-21T23:15:35.598Z,96998.19
2022-10-21T23:18:04.223Z,97006.97
2022-10-21T23:20:32.599Z,97006.16
2022-10-21T23:23:01.190Z,97014.09
2022-10-21T23:25:29.846Z,97007.97
2022-10-21T23:27:58.195Z,97009.78
2022-10-21T23:30:26.706Z,97002.81
2022-10-21T23:32:56.756Z,96998.34
2022-10-21T23:35:25.172Z,96999.19
2022-10-21T23:37:53.616Z,97000.16
2022-10-21T23:40:22.108Z,97000.34
2022-10-21T23:42:50.512Z,97000.34
2022-10-21T23:45:18.921Z,96996.69
2022-10-21T23:47:47.540Z,96991.38
2022-10-21T23:50:17.489Z,96995.84
2022-10-21T23:52:46.102Z,96994.19
2022-10-21T23:55:14.863Z,97002.16
2022-10-21T23:57:43.689Z,96991.53
